createdAt,value
2019-05-06T00:00:05.378Z,6.60
2019-05-06T00:00:25.727Z,5.83
2019-05-06T00:01:05.394Z,6.80
2019-05-06T00:02:05.412Z,7.10
2019-05-06T00:02:54.746Z,6.10
2019-05-06T00:03:05.438Z,7.50
2019-05-06T00:04:05.450Z,6.70
2019-05-06T00:05:05.460Z,6.60
2019-05-06T00:05:25.326Z,5.50
2019-05-06T00:06:05.477Z,6.70
2019-05-06T00:07:05.493Z,6.50
2019-05-06T00:07:54.869Z,6.20
2019-05-06T00:08:05.513Z,7.10
2019-05-06T00:09:05.526Z,7.00
2019-05-06T00:10:05.840Z,7.10
2019-05-06T00:10:28.281Z,5.43
2019-05-06T00:11:05.554Z,6.90
2019-05-06T00:12:05.574Z,7.70
2019-05-06T00:12:57.245Z,6.10
2019-05-06T00:13:05.593Z,6.50
2019-05-06T00:14:05.605Z,6.40
2019-05-06T00:15:05.623Z,7.30
2019-05-06T00:15:26.425Z,5.43
2019-05-06T00:16:05.637Z,6.70
2019-05-06T00:17:05.654Z,6.60
2019-05-06T00:17:55.514Z,5.67
2019-05-06T00:18:05.678Z,7.40
2019-05-06T00:19:05.690Z,7.20
2019-05-06T00:20:05.703Z,6.90
2019-05-06T00:20:24.712Z,5.80
2019-05-06T00:21:05.720Z,7.20
2019-05-06T00:22:05.742Z,7.20
2019-05-06T00:22:56.061Z,5.80
2019-05-06T00:23:05.752Z,7.10
2019-05-06T00:24:05.767Z,6.80
2019-05-06T00:25:05.783Z,6.80
2019-05-06T00:25:34.840Z,7.00
2019-05-06T00:26:05.807Z,6.50
2019-05-06T00:27:05.816Z,6.70
2019-05-06T00:28:06.135Z,7.10
2019-05-06T00:28:33.822Z,5.43
2019-05-06T00:29:05.848Z,6.80
2019-05-06T00:30:05.888Z,6.90
2019-05-06T00:31:12.718Z,7.40
2019-05-06T00:31:12.850Z,5.50
2019-05-06T00:32:05.905Z,7.40
2019-05-06T00:33:05.914Z,6.80
2019-05-06T00:33:34.184Z,5.60
2019-05-06T00:34:05.929Z,6.90
2019-05-06T00:35:05.948Z,7.10
2019-05-06T00:36:04.699Z,6.10
2019-05-06T00:36:05.961Z,7.50
2019-05-06T00:37:05.976Z,6.90
2019-05-06T00:38:06.000Z,7.20
2019-05-06T00:38:34.140Z,5.80
2019-05-06T00:39:06.012Z,7.20
2019-05-06T00:40:06.025Z,7.10
2019-05-06T00:41:05.699Z,6.03
2019-05-06T00:41:06.052Z,6.60
2019-05-06T00:42:06.058Z,7.50
2019-05-06T00:43:06.076Z,7.70
2019-05-06T00:43:34.611Z,6.13
2019-05-06T00:44:06.086Z,6.90
2019-05-06T00:45:06.104Z,7.80
2019-05-06T00:46:04.714Z,6.27
2019-05-06T00:46:06.122Z,7.20
2019-05-06T00:47:06.145Z,7.40
2019-05-06T00:48:06.154Z,6.60
2019-05-06T00:48:34.267Z,5.77
2019-05-06T00:49:06.174Z,7.00
2019-05-06T00:50:06.187Z,7.40
2019-05-06T00:51:04.579Z,6.30
2019-05-06T00:51:06.199Z,7.60
2019-05-06T00:52:06.219Z,7.70
2019-05-06T00:53:06.240Z,7.50
2019-05-06T00:53:35.815Z,6.23
2019-05-06T00:54:06.250Z,7.50
2019-05-06T00:55:06.267Z,7.70
2019-05-06T00:56:04.791Z,6.53
2019-05-06T00:56:06.282Z,7.20
2019-05-06T00:57:06.296Z,7.30
2019-05-06T00:58:06.309Z,7.10
2019-05-06T00:58:34.839Z,6.13
2019-05-06T00:59:06.328Z,7.40
2019-05-06T01:00:06.341Z,7.30
2019-05-06T01:01:04.651Z,6.47
2019-05-06T01:01:06.356Z,7.10
2019-05-06T01:02:06.373Z,7.50
2019-05-06T01:03:06.393Z,7.50
2019-05-06T01:03:34.689Z,5.90
2019-05-06T01:04:06.407Z,7.60
2019-05-06T01:05:06.423Z,8.10
2019-05-06T01:06:04.439Z,7.40
2019-05-06T01:06:06.436Z,7.40
2019-05-06T01:07:06.456Z,8.50
2019-05-06T01:08:06.468Z,8.40
2019-05-06T01:08:34.834Z,5.93
2019-05-06T01:09:06.483Z,8.30
2019-05-06T01:10:06.500Z,8.10
2019-05-06T01:11:04.659Z,7.00
2019-05-06T01:11:06.516Z,7.60
2019-05-06T01:12:06.533Z,7.60
2019-05-06T01:13:06.549Z,7.70
2019-05-06T01:13:38.481Z,6.97
2019-05-06T01:14:06.567Z,7.90
2019-05-06T01:15:06.576Z,8.40
2019-05-06T01:16:06.617Z,8.10
2019-05-06T01:16:08.274Z,6.27
2019-05-06T01:17:06.611Z,8.80
2019-05-06T01:18:06.625Z,7.60
2019-05-06T01:18:37.268Z,6.20
2019-05-06T01:19:06.638Z,7.60
2019-05-06T01:20:06.656Z,7.90
2019-05-06T01:21:06.668Z,7.20
2019-05-06T01:21:13.919Z,5.67
2019-05-06T01:22:06.689Z,7.30
2019-05-06T01:23:06.702Z,8.10
2019-05-06T01:23:43.920Z,6.20
2019-05-06T01:24:06.721Z,8.10
2019-05-06T01:25:06.735Z,8.00
2019-05-06T01:26:06.747Z,7.40
2019-05-06T01:26:15.008Z,6.00
2019-05-06T01:27:06.765Z,7.10
2019-05-06T01:28:06.778Z,7.70
2019-05-06T01:28:44.616Z,6.00
2019-05-06T01:29:06.794Z,7.50
2019-05-06T01:30:06.812Z,7.30
2019-05-06T01:31:06.829Z,7.90
2019-05-06T01:31:14.089Z,6.17
2019-05-06T01:32:06.838Z,7.90
2019-05-06T01:33:06.858Z,7.80
2019-05-06T01:33:45.034Z,7.20
2019-05-06T01:34:06.873Z,7.60
2019-05-06T01:35:06.888Z,7.90
2019-05-06T01:36:06.901Z,7.80
2019-05-06T01:36:14.267Z,6.17
2019-05-06T01:37:06.918Z,7.80
2019-05-06T01:38:06.931Z,8.30
2019-05-06T01:39:04.284Z,7.17
2019-05-06T01:39:06.945Z,7.70
2019-05-06T01:40:06.960Z,7.80
2019-05-06T01:41:06.981Z,7.80
2019-05-06T01:42:00.766Z,6.47
2019-05-06T01:42:06.994Z,8.00
2019-05-06T01:43:07.005Z,7.70
2019-05-06T01:44:07.023Z,7.40
2019-05-06T01:44:29.651Z,6.17
2019-05-06T01:45:07.040Z,7.20
2019-05-06T01:46:07.055Z,7.30
2019-05-06T01:46:58.650Z,6.47
2019-05-06T01:47:07.073Z,7.20
2019-05-06T01:48:07.081Z,8.30
2019-05-06T01:49:07.103Z,7.70
2019-05-06T01:49:27.531Z,6.83
2019-05-06T01:50:07.113Z,7.80
2019-05-06T01:51:07.128Z,7.70
2019-05-06T01:51:56.524Z,6.93
2019-05-06T01:52:07.148Z,7.50
2019-05-06T01:53:07.156Z,7.20
2019-05-06T01:54:07.173Z,7.60
2019-05-06T01:54:25.530Z,6.83
2019-05-06T01:55:07.187Z,7.20
2019-05-06T01:56:07.202Z,7.50
2019-05-06T01:56:54.608Z,6.87
2019-05-06T01:57:07.215Z,7.30
2019-05-06T01:58:07.233Z,7.60
2019-05-06T01:59:07.249Z,7.40
2019-05-06T01:59:24.608Z,6.30
2019-05-06T02:00:07.261Z,7.10
2019-05-06T02:01:07.277Z,7.60
2019-05-06T02:02:00.487Z,6.43
2019-05-06T02:02:07.293Z,7.50
2019-05-06T02:03:07.307Z,8.30
2019-05-06T02:04:07.319Z,7.40
2019-05-06T02:04:24.539Z,5.77
2019-05-06T02:05:07.336Z,6.80
2019-05-06T02:06:07.350Z,7.10
2019-05-06T02:06:54.541Z,5.87
2019-05-06T02:07:07.367Z,8.00
2019-05-06T02:08:07.385Z,7.30
2019-05-06T02:09:07.405Z,7.70
2019-05-06T02:09:24.645Z,6.47
2019-05-06T02:10:07.419Z,7.50
2019-05-06T02:11:07.430Z,7.00
2019-05-06T02:11:54.091Z,6.23
2019-05-06T02:12:07.440Z,7.50
2019-05-06T02:13:07.459Z,7.70
2019-05-06T02:14:07.473Z,7.40
2019-05-06T02:14:24.662Z,7.53
2019-05-06T02:15:07.488Z,7.40
2019-05-06T02:16:07.501Z,7.60
2019-05-06T02:16:54.603Z,6.43
2019-05-06T02:17:07.517Z,8.00
2019-05-06T02:18:07.529Z,8.00
2019-05-06T02:19:07.543Z,7.30
2019-05-06T02:19:24.264Z,7.67
2019-05-06T02:20:07.561Z,7.70
2019-05-06T02:21:07.584Z,7.80
2019-05-06T02:22:07.590Z,8.20
2019-05-06T02:22:17.312Z,7.57
2019-05-06T02:23:07.606Z,8.80
2019-05-06T02:24:07.620Z,8.60
2019-05-06T02:24:49.871Z,7.70
2019-05-06T02:25:07.640Z,8.30
2019-05-06T02:26:07.655Z,8.00
2019-05-06T02:27:07.664Z,8.30
2019-05-06T02:27:18.868Z,7.10
2019-05-06T02:28:07.677Z,8.20
2019-05-06T02:29:07.690Z,8.10
2019-05-06T02:29:54.348Z,8.40
2019-05-06T02:30:07.707Z,8.90
2019-05-06T02:31:07.723Z,8.80
2019-05-06T02:32:21.082Z,8.80
2019-05-06T02:32:45.550Z,6.90
2019-05-06T02:33:07.755Z,9.10
2019-05-06T02:34:07.768Z,8.60
2019-05-06T02:35:07.787Z,8.90
2019-05-06T02:35:20.451Z,6.70
2019-05-06T02:36:07.796Z,9.00
2019-05-06T02:37:07.819Z,8.20
2019-05-06T02:37:49.390Z,7.20
2019-05-06T02:38:07.833Z,8.20
2019-05-06T02:39:07.846Z,8.10
2019-05-06T02:40:07.857Z,7.00
2019-05-06T02:40:19.786Z,6.77
2019-05-06T02:41:07.868Z,7.40
2019-05-06T02:42:07.907Z,8.00
2019-05-06T02:42:48.810Z,6.57
2019-05-06T02:43:07.901Z,8.10
2019-05-06T02:44:10.227Z,7.50
2019-05-06T02:45:07.932Z,7.90
2019-05-06T02:45:17.766Z,7.10
2019-05-06T02:46:07.944Z,8.30
2019-05-06T02:47:07.966Z,7.70
2019-05-06T02:47:56.270Z,7.37
2019-05-06T02:48:07.978Z,8.00
2019-05-06T02:49:07.990Z,8.10
2019-05-06T02:50:08.003Z,8.00
2019-05-06T02:50:26.280Z,6.73
2019-05-06T02:51:08.018Z,8.00
2019-05-06T02:52:08.033Z,8.70
2019-05-06T02:52:55.302Z,7.20
2019-05-06T02:53:08.055Z,8.90
2019-05-06T02:54:08.062Z,9.10
2019-05-06T02:55:08.079Z,8.90
2019-05-06T02:55:24.259Z,7.30
2019-05-06T02:56:08.095Z,8.20
2019-05-06T02:57:08.106Z,8.80
2019-05-06T02:57:53.849Z,6.93
2019-05-06T02:58:08.119Z,8.10
2019-05-06T02:59:08.137Z,7.90
2019-05-06T03:00:08.153Z,8.00
2019-05-06T03:00:23.871Z,7.17
2019-05-06T03:01:08.170Z,8.50
2019-05-06T03:02:08.179Z,8.10
2019-05-06T03:02:54.081Z,7.27
2019-05-06T03:03:08.212Z,8.70
2019-05-06T03:04:08.211Z,8.70
2019-05-06T03:05:08.230Z,9.20
2019-05-06T03:05:23.796Z,7.33
2019-05-06T03:06:08.240Z,8.60
2019-05-06T03:07:08.262Z,8.40
2019-05-06T03:07:57.101Z,7.63
2019-05-06T03:08:08.268Z,8.60
2019-05-06T03:09:08.284Z,8.70
2019-05-06T03:10:08.300Z,8.40
2019-05-06T03:10:24.662Z,7.03
2019-05-06T03:11:08.311Z,7.90
2019-05-06T03:12:08.337Z,7.70
2019-05-06T03:12:54.292Z,7.37
2019-05-06T03:13:08.342Z,7.60
2019-05-06T03:14:08.357Z,7.80
2019-05-06T03:15:08.373Z,7.80
2019-05-06T03:15:24.002Z,6.87
2019-05-06T03:16:08.388Z,7.60
2019-05-06T03:17:08.394Z,8.50
2019-05-06T03:17:55.482Z,7.60
2019-05-06T03:18:08.413Z,8.20
2019-05-06T03:19:08.430Z,7.90
2019-05-06T03:20:08.461Z,8.50
2019-05-06T03:20:32.386Z,6.93
2019-05-06T03:21:08.458Z,7.30
2019-05-06T03:22:08.641Z,7.80
2019-05-06T03:23:05.938Z,6.90
2019-05-06T03:23:08.523Z,7.40
2019-05-06T03:24:08.539Z,7.90
2019-05-06T03:25:08.547Z,8.60
2019-05-06T03:25:37.170Z,6.90
2019-05-06T03:26:08.575Z,8.10
2019-05-06T03:27:08.565Z,8.70
2019-05-06T03:28:06.151Z,7.60
2019-05-06T03:28:08.580Z,8.60
2019-05-06T03:29:08.697Z,7.90
2019-05-06T03:30:08.661Z,9.20
2019-05-06T03:30:36.355Z,8.10
2019-05-06T03:31:08.624Z,9.10
2019-05-06T03:32:08.790Z,8.50
2019-05-06T03:33:37.906Z,8.80
2019-05-06T03:33:40.189Z,7.80
2019-05-06T03:34:35.789Z,8.60
2019-05-06T03:35:31.444Z,9.00
2019-05-06T03:35:49.934Z,7.60
2019-05-06T03:36:18.734Z,8.10
2019-05-06T03:37:08.915Z,8.00
2019-05-06T03:38:06.927Z,7.73
2019-05-06T03:38:08.710Z,8.80
2019-05-06T03:39:08.719Z,8.80
2019-05-06T03:40:08.733Z,8.60
2019-05-06T03:40:36.727Z,7.67
2019-05-06T03:41:08.748Z,8.90
2019-05-06T03:42:08.807Z,8.80
2019-05-06T03:43:06.446Z,8.40
2019-05-06T03:43:08.781Z,8.90
2019-05-06T03:44:08.792Z,9.60
2019-05-06T03:45:08.812Z,9.20
2019-05-06T03:45:43.258Z,7.40
2019-05-06T03:46:08.846Z,8.60
2019-05-06T03:47:08.844Z,9.00
2019-05-06T03:48:08.866Z,9.50
2019-05-06T03:48:19.819Z,9.10
2019-05-06T03:49:08.875Z,10.20
2019-05-06T03:50:08.882Z,9.30
2019-05-06T03:50:48.703Z,8.40
2019-05-06T03:51:08.908Z,10.40
2019-05-06T03:52:08.916Z,10.10
2019-05-06T03:53:08.923Z,9.40
2019-05-06T03:53:17.881Z,7.83
2019-05-06T03:54:08.937Z,9.20
2019-05-06T03:55:08.955Z,9.30
2019-05-06T03:55:47.306Z,8.57
2019-05-06T03:56:08.971Z,9.20
2019-05-06T03:57:09.003Z,9.00
2019-05-06T03:58:08.996Z,9.00
2019-05-06T03:58:16.890Z,8.80
2019-05-06T03:59:09.028Z,9.10
2019-05-06T04:00:09.038Z,8.80
2019-05-06T04:00:46.609Z,8.27
2019-05-06T04:01:09.191Z,8.80
2019-05-06T04:02:09.069Z,8.40
2019-05-06T04:03:09.085Z,8.40
2019-05-06T04:03:15.538Z,8.07
2019-05-06T04:04:09.112Z,8.80
2019-05-06T04:05:09.115Z,8.70
2019-05-06T04:05:44.476Z,7.90
2019-05-06T04:06:09.118Z,8.80
2019-05-06T04:07:09.145Z,8.90
2019-05-06T04:08:09.148Z,8.90
2019-05-06T04:08:13.674Z,7.67
2019-05-06T04:09:09.180Z,9.00
2019-05-06T04:10:09.189Z,8.30
2019-05-06T04:10:43.509Z,8.83
2019-05-06T04:11:09.191Z,9.30
2019-05-06T04:12:09.222Z,9.60
2019-05-06T04:13:09.238Z,9.40
2019-05-06T04:13:13.490Z,8.90
2019-05-06T04:14:09.243Z,10.20
2019-05-06T04:15:09.258Z,11.10
2019-05-06T04:15:59.196Z,12.13
2019-05-06T04:16:09.408Z,11.20
2019-05-06T04:17:09.291Z,14.00
2019-05-06T04:18:09.309Z,10.00
2019-05-06T04:18:28.926Z,8.70
2019-05-06T04:19:09.324Z,9.60
2019-05-06T04:20:09.329Z,10.30
2019-05-06T04:21:09.345Z,10.20
2019-05-06T04:21:17.045Z,8.80
2019-05-06T04:22:09.356Z,8.60
2019-05-06T04:23:09.383Z,9.90
2019-05-06T04:24:00.090Z,8.20
2019-05-06T04:24:09.391Z,10.20
2019-05-06T04:25:09.420Z,10.70
2019-05-06T04:26:09.431Z,12.00
2019-05-06T04:26:39.409Z,10.53
2019-05-06T04:27:09.446Z,11.30
2019-05-06T04:28:09.464Z,12.50
2019-05-06T04:29:08.480Z,10.53
2019-05-06T04:29:09.479Z,12.00
2019-05-06T04:30:09.487Z,11.80
2019-05-06T04:31:09.500Z,12.10
2019-05-06T04:31:37.383Z,10.73
2019-05-06T04:32:09.514Z,13.20
2019-05-06T04:33:14.078Z,12.50
2019-05-06T04:34:14.037Z,10.50
2019-05-06T04:34:14.541Z,12.00
2019-05-06T04:35:09.557Z,11.20
2019-05-06T04:36:09.580Z,11.50
2019-05-06T04:36:36.789Z,9.67
2019-05-06T04:37:09.592Z,11.10
2019-05-06T04:38:09.603Z,12.00
2019-05-06T04:39:06.746Z,9.23
2019-05-06T04:39:12.845Z,11.00
2019-05-06T04:40:09.637Z,10.80
2019-05-06T04:41:09.656Z,10.70
2019-05-06T04:41:35.707Z,9.73
2019-05-06T04:42:09.959Z,10.10
2019-05-06T04:43:13.051Z,11.20
2019-05-06T04:44:04.791Z,10.00
2019-05-06T04:44:09.714Z,11.50
2019-05-06T04:45:09.706Z,10.80
2019-05-06T04:46:09.731Z,10.80
2019-05-06T04:46:34.808Z,9.80
2019-05-06T04:47:09.740Z,11.00
2019-05-06T04:48:09.754Z,11.50
2019-05-06T04:49:04.389Z,9.77
2019-05-06T04:49:14.010Z,11.00
2019-05-06T04:50:09.792Z,11.50
2019-05-06T04:51:09.802Z,10.00
2019-05-06T04:51:37.062Z,9.37
2019-05-06T04:52:09.819Z,10.30
2019-05-06T04:53:09.839Z,10.80
2019-05-06T04:54:13.038Z,10.20
2019-05-06T04:54:14.970Z,10.20
2019-05-06T04:55:09.866Z,10.20
2019-05-06T04:56:09.879Z,10.30
2019-05-06T04:56:44.114Z,9.00
2019-05-06T04:57:12.716Z,9.70
2019-05-06T04:58:09.929Z,10.00
2019-05-06T04:59:09.926Z,10.70
2019-05-06T04:59:14.073Z,9.77
2019-05-06T05:00:12.754Z,10.20
2019-05-06T05:01:14.898Z,10.60
2019-05-06T05:01:45.717Z,9.33
2019-05-06T05:02:09.970Z,11.00
2019-05-06T05:03:09.986Z,12.20
2019-05-06T05:04:24.469Z,11.30
2019-05-06T05:04:24.658Z,9.60
2019-05-06T05:05:10.026Z,11.30
2019-05-06T05:06:10.031Z,11.00
2019-05-06T05:06:44.552Z,9.70
2019-05-06T05:07:12.644Z,11.00
2019-05-06T05:08:10.081Z,10.60
2019-05-06T05:09:14.479Z,11.40
2019-05-06T05:09:17.043Z,10.40
2019-05-06T05:10:12.342Z,10.90
2019-05-06T05:11:12.761Z,11.20
2019-05-06T05:11:54.417Z,9.17
2019-05-06T05:12:10.129Z,11.10
2019-05-06T05:13:12.400Z,10.40
2019-05-06T05:14:10.164Z,11.80
2019-05-06T05:14:34.892Z,10.67
2019-05-06T05:15:11.850Z,10.70
2019-05-06T05:16:10.190Z,10.40
2019-05-06T05:17:10.207Z,10.40
2019-05-06T05:17:26.213Z,10.03
2019-05-06T05:18:10.225Z,11.10
2019-05-06T05:19:12.103Z,10.80
2019-05-06T05:19:55.182Z,8.90
2019-05-06T05:20:10.254Z,10.40
2019-05-06T05:21:11.913Z,10.70
2019-05-06T05:22:12.386Z,10.10
2019-05-06T05:22:24.072Z,9.87
2019-05-06T05:23:11.864Z,10.60
2019-05-06T05:24:12.020Z,10.20
2019-05-06T05:24:53.080Z,9.80
2019-05-06T05:25:12.201Z,10.30
2019-05-06T05:26:12.079Z,11.70
2019-05-06T05:27:12.413Z,10.90
2019-05-06T05:27:22.096Z,10.07
2019-05-06T05:28:10.382Z,10.30
2019-05-06T05:29:12.185Z,10.00
2019-05-06T05:29:52.201Z,10.30
2019-05-06T05:30:12.385Z,10.40
2019-05-06T05:31:12.288Z,10.10
2019-05-06T05:32:12.611Z,9.30
2019-05-06T05:32:22.545Z,10.17
2019-05-06T05:33:12.189Z,10.10
2019-05-06T05:34:12.646Z,9.30
2019-05-06T05:34:52.290Z,9.53
2019-05-06T05:35:12.624Z,10.10
2019-05-06T05:36:12.230Z,10.00
2019-05-06T05:37:12.136Z,11.00
2019-05-06T05:37:22.742Z,9.83
2019-05-06T05:38:12.804Z,11.30
2019-05-06T05:39:12.531Z,10.20
2019-05-06T05:39:52.109Z,10.57
2019-05-06T05:40:12.783Z,10.30
2019-05-06T05:41:12.108Z,10.30
2019-05-06T05:42:12.354Z,10.30
2019-05-06T05:42:36.660Z,10.60
2019-05-06T05:43:11.735Z,10.20
2019-05-06T05:44:12.014Z,9.70
2019-05-06T05:45:05.908Z,9.00
2019-05-06T05:45:12.726Z,10.10
2019-05-06T05:46:12.651Z,9.60
2019-05-06T05:47:12.351Z,9.70
2019-05-06T05:47:34.778Z,10.50
2019-05-06T05:48:12.381Z,9.40
2019-05-06T05:49:12.037Z,9.50
2019-05-06T05:50:13.163Z,9.60
2019-05-06T05:50:22.837Z,10.47
2019-05-06T05:51:12.704Z,10.30
2019-05-06T05:52:12.689Z,9.90
2019-05-06T05:52:52.038Z,10.27
2019-05-06T05:53:12.055Z,10.20
2019-05-06T05:54:12.440Z,9.50
2019-05-06T05:55:12.142Z,9.90
2019-05-06T05:55:21.964Z,9.47
2019-05-06T05:56:12.312Z,10.00
2019-05-06T05:57:11.890Z,10.30
2019-05-06T05:57:51.912Z,9.60
2019-05-06T05:58:12.822Z,10.20
2019-05-06T05:59:12.274Z,9.90
2019-05-06T06:00:12.945Z,9.50
2019-05-06T06:00:22.505Z,9.93
2019-05-06T06:01:12.701Z,9.30
2019-05-06T06:02:12.828Z,11.00
2019-05-06T06:02:52.994Z,9.53
2019-05-06T06:03:12.683Z,10.40
2019-05-06T06:04:12.873Z,10.40
2019-05-06T06:05:12.404Z,10.20
2019-05-06T06:05:22.262Z,10.00
2019-05-06T06:06:12.642Z,10.00
2019-05-06T06:07:12.145Z,10.40
2019-05-06T06:07:52.965Z,10.47
2019-05-06T06:08:12.990Z,11.30
2019-05-06T06:09:12.716Z,10.90
2019-05-06T06:10:12.906Z,10.50
2019-05-06T06:10:42.581Z,9.53
2019-05-06T06:11:12.277Z,9.80
2019-05-06T06:12:12.043Z,10.70
2019-05-06T06:13:12.780Z,9.83
2019-05-06T06:13:12.789Z,10.10
2019-05-06T06:14:12.675Z,10.40
2019-05-06T06:15:12.601Z,9.60
2019-05-06T06:16:13.020Z,9.80
2019-05-06T06:16:13.354Z,8.40
2019-05-06T06:17:12.961Z,9.10
2019-05-06T06:18:12.596Z,9.30
2019-05-06T06:18:52.541Z,9.43
2019-05-06T06:19:12.728Z,9.70
2019-05-06T06:20:12.188Z,9.60
2019-05-06T06:21:20.649Z,9.00
2019-05-06T06:21:29.070Z,9.17
2019-05-06T06:22:11.840Z,9.20
2019-05-06T06:23:13.424Z,9.60
2019-05-06T06:24:02.791Z,8.70
2019-05-06T06:24:13.091Z,8.60
2019-05-06T06:25:14.212Z,9.00
2019-05-06T06:26:12.121Z,8.70
2019-05-06T06:26:32.483Z,7.57
2019-05-06T06:27:12.552Z,8.80
2019-05-06T06:28:11.943Z,8.70
2019-05-06T06:29:03.249Z,8.83
2019-05-06T06:29:12.502Z,8.30
2019-05-06T06:30:12.895Z,8.90
2019-05-06T06:31:12.101Z,8.60
2019-05-06T06:31:52.430Z,8.27
2019-05-06T06:32:13.576Z,8.80
2019-05-06T06:33:12.869Z,8.70
2019-05-06T06:34:12.967Z,9.30
2019-05-06T06:34:29.241Z,8.33
2019-05-06T06:35:14.574Z,8.80
2019-05-06T06:36:12.253Z,8.60
2019-05-06T06:37:13.233Z,8.80
2019-05-06T06:37:17.178Z,9.27
2019-05-06T06:38:12.341Z,8.40
2019-05-06T06:39:12.528Z,8.50
2019-05-06T06:39:46.884Z,8.07
2019-05-06T06:40:13.089Z,9.00
2019-05-06T06:41:12.105Z,9.00
2019-05-06T06:42:12.668Z,9.00
2019-05-06T06:42:15.918Z,9.30
2019-05-06T06:43:12.421Z,8.80
2019-05-06T06:44:13.204Z,8.40
2019-05-06T06:44:45.271Z,8.37
2019-05-06T06:45:12.336Z,9.70
2019-05-06T06:46:12.653Z,8.90
2019-05-06T06:47:12.941Z,9.00
2019-05-06T06:47:14.271Z,8.40
2019-05-06T06:48:12.336Z,8.80
2019-05-06T06:49:12.742Z,9.20
2019-05-06T06:49:43.263Z,9.00
2019-05-06T06:50:12.561Z,8.80
2019-05-06T06:51:12.366Z,9.00
2019-05-06T06:52:14.601Z,8.80
2019-05-06T06:52:14.745Z,8.87
2019-05-06T06:53:12.326Z,8.40
2019-05-06T06:54:12.421Z,9.90
2019-05-06T06:54:43.767Z,9.03
2019-05-06T06:55:12.982Z,9.70
2019-05-06T06:56:12.512Z,7.80
2019-05-06T06:57:12.700Z,8.40
2019-05-06T06:57:21.670Z,8.33
2019-05-06T06:58:12.117Z,8.90
2019-05-06T06:59:12.766Z,8.70
2019-05-06T06:59:55.818Z,8.90
2019-05-06T07:00:12.458Z,9.60
2019-05-06T07:01:12.416Z,8.70
2019-05-06T07:02:12.160Z,8.90
2019-05-06T07:02:53.072Z,7.87
2019-05-06T07:03:12.398Z,9.20
2019-05-06T07:04:13.418Z,8.60
2019-05-06T07:05:24.825Z,8.70
2019-05-06T07:05:39.163Z,8.53
2019-05-06T07:06:12.720Z,8.70
2019-05-06T07:07:12.985Z,9.00
2019-05-06T07:08:08.155Z,7.70
2019-05-06T07:08:12.695Z,8.70
2019-05-06T07:09:12.598Z,8.40
2019-05-06T07:10:12.196Z,9.10
2019-05-06T07:10:43.427Z,8.53
2019-05-06T07:11:13.072Z,9.20
2019-05-06T07:12:13.246Z,8.80
2019-05-06T07:13:12.300Z,8.50
2019-05-06T07:13:13.324Z,8.90
2019-05-06T07:14:13.714Z,9.40
2019-05-06T07:15:12.653Z,8.40
2019-05-06T07:15:42.745Z,8.07
2019-05-06T07:16:12.415Z,8.50
2019-05-06T07:17:13.353Z,8.80
2019-05-06T07:18:13.447Z,9.17
2019-05-06T07:18:13.472Z,8.80
2019-05-06T07:19:12.778Z,8.90
2019-05-06T07:20:13.201Z,8.60
2019-05-06T07:20:52.717Z,8.90
2019-05-06T07:21:13.997Z,8.60
2019-05-06T07:22:12.852Z,9.20
2019-05-06T07:23:12.495Z,9.70
2019-05-06T07:23:24.762Z,8.53
2019-05-06T07:24:13.126Z,9.40
2019-05-06T07:25:12.892Z,9.00
2019-05-06T07:25:54.036Z,7.70
2019-05-06T07:26:12.632Z,9.00
2019-05-06T07:27:12.651Z,8.00
2019-05-06T07:28:13.595Z,9.00
2019-05-06T07:28:23.472Z,8.10
2019-05-06T07:29:21.498Z,8.60
2019-05-06T07:30:12.627Z,9.20
2019-05-06T07:30:52.540Z,7.90
2019-05-06T07:31:21.962Z,8.90
2019-05-06T07:32:12.629Z,7.90
2019-05-06T07:33:13.298Z,8.30
2019-05-06T07:33:22.876Z,7.30
2019-05-06T07:34:12.670Z,8.10
2019-05-06T07:35:13.016Z,8.40
2019-05-06T07:35:53.028Z,7.67
2019-05-06T07:36:13.163Z,7.80
2019-05-06T07:37:12.731Z,8.00
2019-05-06T07:38:12.750Z,7.80
2019-05-06T07:38:23.331Z,7.17
2019-05-06T07:39:15.266Z,8.30
2019-05-06T07:40:12.784Z,7.50
2019-05-06T07:40:56.733Z,7.23
2019-05-06T07:41:14.743Z,7.40
2019-05-06T07:42:13.243Z,6.90
2019-05-06T07:43:12.850Z,7.30
2019-05-06T07:43:39.218Z,6.77
2019-05-06T07:44:13.150Z,7.90
2019-05-06T07:45:12.883Z,7.30
2019-05-06T07:46:12.908Z,7.50
2019-05-06T07:46:15.666Z,6.70
2019-05-06T07:47:15.549Z,6.60
2019-05-06T07:48:12.988Z,6.30
2019-05-06T07:48:44.558Z,5.87
2019-05-06T07:49:12.970Z,6.10
2019-05-06T07:50:13.224Z,7.00
2019-05-06T07:51:13.015Z,6.50
2019-05-06T07:51:13.465Z,6.63
2019-05-06T07:52:13.028Z,6.50
2019-05-06T07:53:13.370Z,7.00
2019-05-06T07:53:42.833Z,5.83
2019-05-06T07:54:13.071Z,6.50
2019-05-06T07:55:13.091Z,6.60
2019-05-06T07:56:12.671Z,6.10
2019-05-06T07:56:13.112Z,7.10
2019-05-06T07:57:13.139Z,6.90
2019-05-06T07:58:13.942Z,7.20
2019-05-06T07:58:43.344Z,6.50
2019-05-06T07:59:13.179Z,6.60
2019-05-06T08:00:13.194Z,6.60
2019-05-06T08:01:13.616Z,6.00
2019-05-06T08:01:13.753Z,6.00
2019-05-06T08:02:13.240Z,6.60
2019-05-06T08:03:14.048Z,6.20
2019-05-06T08:03:43.004Z,6.10
2019-05-06T08:04:13.280Z,5.60
2019-05-06T08:05:13.300Z,5.90
2019-05-06T08:06:13.224Z,5.90
2019-05-06T08:06:13.459Z,14.60
2019-05-06T08:07:13.349Z,6.20
2019-05-06T08:08:13.363Z,5.40
2019-05-06T08:08:43.349Z,5.13
2019-05-06T08:09:13.399Z,5.40
2019-05-06T08:10:13.652Z,5.30
2019-05-06T08:11:12.700Z,5.73
2019-05-06T08:11:13.428Z,6.20
2019-05-06T08:12:13.450Z,6.10
2019-05-06T08:13:13.471Z,5.80
2019-05-06T08:13:43.514Z,5.37
2019-05-06T08:14:13.495Z,5.80
2019-05-06T08:15:13.514Z,6.50
2019-05-06T08:16:13.536Z,6.50
2019-05-06T08:16:26.786Z,6.23
2019-05-06T08:17:13.559Z,7.80
2019-05-06T08:18:13.580Z,5.50
2019-05-06T08:18:55.704Z,5.03
2019-05-06T08:19:13.606Z,6.60
2019-05-06T08:20:13.623Z,5.80
2019-05-06T08:21:13.643Z,5.70
2019-05-06T08:21:26.389Z,5.00
2019-05-06T08:22:13.664Z,5.10
2019-05-06T08:23:13.688Z,5.60
2019-05-06T08:23:55.431Z,4.87
2019-05-06T08:24:13.707Z,6.20
2019-05-06T08:25:13.760Z,6.00
2019-05-06T08:26:17.312Z,6.10
2019-05-06T08:26:24.313Z,4.87
2019-05-06T08:27:13.776Z,5.70
2019-05-06T08:28:13.797Z,4.80
2019-05-06T08:28:53.208Z,4.60
2019-05-06T08:29:15.937Z,5.00
2019-05-06T08:30:13.879Z,4.90
2019-05-06T08:31:13.854Z,4.70
2019-05-06T08:31:22.799Z,4.20
2019-05-06T08:32:13.872Z,5.40
2019-05-06T08:33:13.897Z,4.30
2019-05-06T08:33:52.485Z,5.30
2019-05-06T08:34:13.919Z,4.80
2019-05-06T08:35:13.939Z,4.90
2019-05-06T08:36:14.920Z,5.10
2019-05-06T08:36:43.753Z,4.70
2019-05-06T08:37:13.980Z,5.10
2019-05-06T08:38:14.002Z,4.70
2019-05-06T08:39:13.238Z,4.50
2019-05-06T08:39:14.024Z,4.80
2019-05-06T08:40:14.046Z,4.90
2019-05-06T08:41:14.065Z,4.70
2019-05-06T08:41:42.399Z,4.43
2019-05-06T08:42:14.098Z,4.80
2019-05-06T08:43:14.110Z,4.50
2019-05-06T08:44:12.751Z,4.30
2019-05-06T08:44:14.126Z,4.70
2019-05-06T08:45:14.149Z,5.30
2019-05-06T08:46:14.171Z,4.80
2019-05-06T08:46:43.156Z,4.03
2019-05-06T08:47:14.193Z,4.90
2019-05-06T08:48:14.212Z,5.40
2019-05-06T08:49:12.587Z,4.33
2019-05-06T08:49:14.233Z,4.80
2019-05-06T08:50:14.267Z,5.20
2019-05-06T08:51:14.277Z,4.80
2019-05-06T08:51:53.112Z,4.10
2019-05-06T08:52:14.299Z,5.00
2019-05-06T08:53:14.436Z,4.70
2019-05-06T08:54:14.359Z,5.00
2019-05-06T08:54:44.365Z,5.10
2019-05-06T08:55:14.553Z,5.40
2019-05-06T08:56:16.420Z,5.40
2019-05-06T08:57:13.373Z,5.17
2019-05-06T08:57:14.475Z,5.20
2019-05-06T08:58:14.510Z,5.90
2019-05-06T08:59:14.528Z,5.50
2019-05-06T08:59:42.463Z,4.83
2019-05-06T09:00:14.493Z,5.60
2019-05-06T09:01:14.511Z,4.90
2019-05-06T09:02:13.679Z,4.60
2019-05-06T09:02:14.519Z,5.80
2019-05-06T09:03:14.551Z,5.00
2019-05-06T09:04:16.363Z,5.70
2019-05-06T09:04:42.714Z,4.77
2019-05-06T09:05:14.589Z,5.60
2019-05-06T09:06:26.471Z,5.30
2019-05-06T09:07:12.210Z,4.67
2019-05-06T09:07:14.627Z,5.60
2019-05-06T09:08:14.652Z,5.60
2019-05-06T09:09:14.703Z,4.90
2019-05-06T09:09:42.146Z,4.70
2019-05-06T09:10:14.692Z,5.70
2019-05-06T09:11:14.720Z,5.50
2019-05-06T09:12:13.014Z,4.67
2019-05-06T09:12:14.734Z,5.20
2019-05-06T09:13:14.746Z,5.10
2019-05-06T09:14:14.766Z,5.20
2019-05-06T09:14:43.070Z,4.87
2019-05-06T09:15:14.790Z,5.40
2019-05-06T09:16:14.811Z,5.20
2019-05-06T09:17:12.269Z,5.20
2019-05-06T09:17:14.831Z,5.60
2019-05-06T09:18:14.851Z,5.40
2019-05-06T09:19:14.872Z,5.90
2019-05-06T09:19:42.635Z,5.70
2019-05-06T09:20:14.894Z,5.60
2019-05-06T09:21:14.913Z,6.10
2019-05-06T09:22:12.943Z,5.47
2019-05-06T09:22:14.936Z,5.70
2019-05-06T09:23:14.958Z,5.80
2019-05-06T09:24:14.978Z,6.00
2019-05-06T09:24:42.614Z,5.90
2019-05-06T09:25:15.002Z,6.20
2019-05-06T09:26:15.025Z,6.10
2019-05-06T09:27:15.044Z,6.10
2019-05-06T09:27:19.277Z,3.97
2019-05-06T09:28:15.064Z,4.60
2019-05-06T09:29:15.083Z,4.70
2019-05-06T09:30:07.214Z,3.90